Wetterdaten: Woche 18.03.19 - 24.03.19 (KW12)
Datum Zeit Temp. A. Pool Temp. Temp. 5cm Feuchte A. Luftdruck Regen Wind Richtung Sonnenschein ET UV Solar Taupunkt Windchill Windben Empfang
18.03.2019 00:00 4,5 C 7,2 C 3,9 C 89 % 1013,9 hPa 0,4 l/m 19,3 km/h (3 Bft) W-SW 0,00 h 0,000 mm 0,0 UV-I 0 W/m 2,8 C -3,5 C 29,0 km/h (5 Bft) 94,81 %
18.03.2019 01:00 4,2 C 7,2 C 3,4 C 89 % 1014,1 hPa 0,0 l/m 18,5 km/h (3 Bft) W-SW 0,00 h 0,025 mm 0,0 UV-I 0 W/m 2,5 C -3,6 C 27,4 km/h (4 Bft) 95,31 %
18.03.2019 02:00 4,2 C 7,2 C 2,8 C 88 % 1013,9 hPa 0,0 l/m 18,8 km/h (3 Bft) SW 0,00 h 0,026 mm 0,0 UV-I 0 W/m 2,3 C -3,7 C 28,1 km/h (4 Bft) 98,99 %
18.03.2019 03:00 4,2 C 7,2 C 3,3 C 85 % 1014,2 hPa 0,0 l/m 17,6 km/h (3 Bft) W-SW 0,00 h 0,025 mm 0,0 UV-I 0 W/m 2,0 C -3,0 C 25,1 km/h (4 Bft) 97,40 %
18.03.2019 04:00 4,2 C 7,2 C 3,3 C 83 % 1014,6 hPa 0,0 l/m 19,2 km/h (3 Bft) W-SW 0,00 h 0,026 mm 0,0 UV-I 0 W/m 1,5 C -3,9 C 28,8 km/h (5 Bft) 98,18 %
18.03.2019 05:00 3,8 C 7,2 C 2,8 C 80 % 1015,1 hPa 0,0 l/m 18,5 km/h (3 Bft) W-SW 0,00 h 0,025 mm 0,0 UV-I 0 W/m 0,6 C -4,1 C 27,2 km/h (4 Bft) 94,41 %
18.03.2019 06:00 3,6 C 7,2 C 2,9 C 80 % 1015,5 hPa 0,0 l/m 18,3 km/h (3 Bft) W-SW 0,07 h 0,025 mm 0,0 UV-I 20 W/m 0,4 C -4,3 C 26,8 km/h (4 Bft) 98,53 %
18.03.2019 07:00 3,9 C 7,2 C 3,7 C 79 % 1015,8 hPa 0,0 l/m 16,0 km/h (3 Bft) W 0,00 h 0,051 mm 0,0 UV-I 72 W/m 0,5 C -2,7 C 23,7 km/h (4 Bft) 97,92 %
18.03.2019 08:00 4,3 C 7,2 C 4,7 C 77 % 1016,4 hPa 0,0 l/m 15,4 km/h (3 Bft) W-SW 0,00 h 0,051 mm 0,0 UV-I 117 W/m 0,7 C -1,9 C 22,6 km/h (4 Bft) 98,35 %
18.03.2019 09:00 4,9 C 7,2 C 6,3 C 75 % 1016,8 hPa 0,0 l/m 11,8 km/h (2 Bft) W-SW 0,00 h 0,076 mm 0,5 UV-I 165 W/m 0,8 C 0,9 C 18,1 km/h (3 Bft) 94,61 %
18.03.2019 10:00 5,6 C 7,2 C 7,3 C 73 % 1016,9 hPa 0,0 l/m 12,3 km/h (3 Bft) W 0,00 h 0,102 mm 0,6 UV-I 166 W/m 1,2 C 1,3 C 18,7 km/h (3 Bft) 97,92 %
18.03.2019 11:00 5,3 C 7,2 C 6,8 C 76 % 1017,4 hPa 0,0 l/m 17,6 km/h (3 Bft) W-SW 0,00 h 0,101 mm 0,6 UV-I 164 W/m 1,3 C -1,7 C 26,9 km/h (4 Bft) 97,71 %
18.03.2019 12:00 5,5 C 7,2 C 8,4 C 76 % 1017,9 hPa 0,0 l/m 17,5 km/h (3 Bft) W-SW 0,00 h 0,102 mm 0,9 UV-I 259 W/m 1,7 C -1,3 C 27,0 km/h (4 Bft) 98,35 %
18.03.2019 13:00 5,6 C 7,2 C 7,8 C 75 % 1017,6 hPa 0,0 l/m 18,8 km/h (3 Bft) W-SW 0,00 h 0,152 mm 0,8 UV-I 210 W/m 1,5 C -1,9 C 28,2 km/h (4 Bft) 96,43 %
18.03.2019 14:00 5,4 C 7,2 C 6,7 C 74 % 1017,9 hPa 0,0 l/m 17,7 km/h (3 Bft) SW 0,00 h 0,127 mm 0,5 UV-I 137 W/m 1,2 C -1,7 C 26,8 km/h (4 Bft) 96,74 %
18.03.2019 15:00 5,2 C 7,2 C 6,1 C 77 % 1018,5 hPa 0,0 l/m 17,0 km/h (3 Bft) W 0,07 h 0,102 mm 0,5 UV-I 154 W/m 1,5 C -1,4 C 26,1 km/h (4 Bft) 97,93 %
18.03.2019 16:00 4,6 C 7,2 C 5,1 C 82 % 1018,6 hPa 0,0 l/m 13,8 km/h (3 Bft) SW 0,57 h 0,102 mm 0,0 UV-I 177 W/m 1,7 C -0,6 C 20,9 km/h (4 Bft) 98,86 %
18.03.2019 17:00 4,9 C 7,2 C 4,0 C 77 % 1019,1 hPa 0,0 l/m 19,7 km/h (3 Bft) W-SW 0,77 h 0,101 mm 0,0 UV-I 66 W/m 1,2 C -3,1 C 29,3 km/h (5 Bft) 96,60 %
18.03.2019 18:00 3,8 C 7,2 C 2,5 C 81 % 1019,9 hPa 0,0 l/m 12,7 km/h (3 Bft) W-SW 0,07 h 0,076 mm 0,0 UV-I 9 W/m 0,8 C -1,0 C 19,2 km/h (3 Bft) 96,44 %
18.03.2019 19:00 3,1 C 7,2 C 1,3 C 83 % 1020,6 hPa 0,0 l/m 12,5 km/h (3 Bft) W-SW 0,00 h 0,026 mm 0,0 UV-I 0 W/m 0,4 C -1,7 C 18,2 km/h (3 Bft) 96,84 %
18.03.2019 20:00 2,8 C 7,2 C 0,9 C 82 % 1021,2 hPa 0,0 l/m 10,7 km/h (2 Bft) W-SW 0,00 h 0,025 mm 0,0 UV-I 0 W/m 0,1 C -0,7 C 16,6 km/h (3 Bft) 98,71 %
18.03.2019 21:00 2,3 C 7,2 C 0,5 C 84 % 1021,7 hPa 0,0 l/m 10,3 km/h (2 Bft) W-SW 0,00 h 0,026 mm 0,0 UV-I 0 W/m -0,1 C -1,1 C 15,4 km/h (3 Bft) 98,52 %
18.03.2019 22:00 2,3 C 7,2 C 0,4 C 82 % 1022,4 hPa 0,0 l/m 10,9 km/h (2 Bft) W-SW 0,00 h 0,025 mm 0,0 UV-I 0 W/m -0,4 C -1,4 C 15,8 km/h (3 Bft) 95,91 %
18.03.2019 23:00 2,2 C 7,2 C 0,1 C 83 % 1022,9 hPa 0,0 l/m 9,8 km/h (2 Bft) W 0,00 h 0,025 mm 0,0 UV-I 0 W/m -0,5 C -0,8 C 14,7 km/h (3 Bft) 97,43 %
19.03.2019 00:00 1,6 C 7,2 C -0,7 C 84 % 1023,3 hPa 0,0 l/m 7,2 km/h (2 Bft) SW 0,00 h 0,000 mm 0,0 UV-I 0 W/m -0,7 C 0,8 C 10,5 km/h (2 Bft) 97,27 %
19.03.2019 01:00 1,6 C 7,2 C 0,1 C 85 % 1023,4 hPa 0,0 l/m 6,8 km/h (2 Bft) W-SW 0,00 h 0,000 mm 0,0 UV-I 0 W/m -0,7 C 0,9 C 10,3 km/h (2 Bft) 98,58 %
19.03.2019 02:00 2,1 C 7,2 C 0,8 C 84 % 1023,2 hPa 0,0 l/m 10,1 km/h (2 Bft) W 0,00 h 0,000 mm 0,0 UV-I 0 W/m -0,3 C -1,1 C 14,7 km/h (3 Bft) 95,22 %
19.03.2019 03:00 2,1 C 7,2 C 1,2 C 85 % 1023,4 hPa 0,0 l/m 8,7 km/h (2 Bft) W-SW 0,00 h 0,025 mm 0,0 UV-I 0 W/m -0,1 C -0,2 C 13,0 km/h (3 Bft) 97,93 %
19.03.2019 04:00 1,6 C 7,2 C 0,0 C 87 % 1023,8 hPa 0,0 l/m 2,9 km/h (1 Bft) W 0,00 h 0,000 mm 0,0 UV-I 0 W/m -0,2 C 1,6 C 5,2 km/h (1 Bft) 96,85 %
19.03.2019 05:00 0,4 C 7,2 C -2,5 C 91 % 1024,0 hPa 0,0 l/m 0,9 km/h (0 Bft) W 0,00 h 0,000 mm 0,0 UV-I 0 W/m -0,9 C 0,4 C 1,9 km/h (1 Bft) 98,61 %
19.03.2019 06:00 0,7 C 7,2 C 0,0 C 91 % 1024,6 hPa 0,0 l/m 3,0 km/h (1 Bft) SW 0,00 h 0,000 mm 0,0 UV-I 13 W/m -0,6 C 0,7 C 4,1 km/h (1 Bft) 95,77 %
19.03.2019 07:00 2,3 C 7,2 C 3,2 C 88 % 1025,2 hPa 0,0 l/m 5,5 km/h (1 Bft) W-SW 0,23 h 0,000 mm 0,0 UV-I 105 W/m 0,5 C 2,2 C 8,5 km/h (2 Bft) 97,66 %
19.03.2019 08:00 3,3 C 7,2 C 5,4 C 86 % 1025,8 hPa 0,0 l/m 6,2 km/h (2 Bft) W-SW 0,07 h 0,051 mm 0,0 UV-I 122 W/m 1,2 C 2,7 C 10,6 km/h (2 Bft) 98,50 %
19.03.2019 09:00 3,0 C 7,2 C 4,9 C 90 % 1026,3 hPa 0,0 l/m 8,0 km/h (2 Bft) W 0,03 h 0,051 mm 0,6 UV-I 154 W/m 1,6 C 1,4 C 12,9 km/h (3 Bft) 97,43 %
19.03.2019 10:00 4,2 C 7,2 C 10,8 C 88 % 1026,5 hPa 0,0 l/m 7,6 km/h (2 Bft) W-SW 0,57 h 0,076 mm 1,1 UV-I 393 W/m 2,4 C 2,7 C 12,5 km/h (3 Bft) 96,51 %
19.03.2019 11:00 6,2 C 7,2 C 15,5 C 78 % 1026,4 hPa 0,2 l/m 8,1 km/h (2 Bft) W 0,83 h 0,153 mm 1,6 UV-I 521 W/m 2,5 C 4,5 C 14,1 km/h (3 Bft) 95,59 %
19.03.2019 12:00 6,9 C 7,2 C 12,8 C 68 % 1026,2 hPa 0,0 l/m 7,1 km/h (2 Bft) W-SW 0,30 h 0,228 mm 1,3 UV-I 347 W/m 1,4 C 5,9 C 12,6 km/h (3 Bft) 96,62 %
19.03.2019 13:00 7,2 C 7,2 C 12,4 C 63 % 1026,0 hPa 0,0 l/m 8,1 km/h (2 Bft) W 0,27 h 0,178 mm 1,2 UV-I 327 W/m 0,6 C 5,7 C 14,3 km/h (3 Bft) 98,24 %
19.03.2019 14:00 7,4 C 7,2 C 11,4 C 60 % 1026,1 hPa 0,0 l/m 11,0 km/h (2 Bft) W-SW 0,37 h 0,178 mm 0,9 UV-I 291 W/m 0,2 C 4,2 C 17,4 km/h (3 Bft) 97,05 %
19.03.2019 15:00 7,8 C 7,2 C 11,1 C 60 % 1026,1 hPa 0,0 l/m 11,7 km/h (2 Bft) S-SW 0,53 h 0,178 mm 0,7 UV-I 306 W/m 0,5 C 4,3 C 18,0 km/h (3 Bft) 98,85 %
19.03.2019 16:00 6,5 C 7,2 C 7,6 C 68 % 1026,4 hPa 0,0 l/m 11,3 km/h (2 Bft) SW 0,37 h 0,177 mm 0,0 UV-I 154 W/m 1,0 C 3,0 C 17,6 km/h (3 Bft) 96,40 %
19.03.2019 17:00 5,9 C 7,2 C 5,8 C 70 % 1027,0 hPa 0,0 l/m 9,6 km/h (2 Bft) SW 0,57 h 0,102 mm 0,0 UV-I 61 W/m 0,8 C 3,4 C 15,2 km/h (3 Bft) 97,38 %
19.03.2019 18:00 4,6 C 7,2 C 2,7 C 74 % 1027,8 hPa 0,0 l/m 6,2 km/h (2 Bft) SW 0,10 h 0,051 mm 0,0 UV-I 10 W/m 0,4 C 4,3 C 9,2 km/h (2 Bft) 97,25 %
19.03.2019 19:00 3,7 C 7,2 C 2,2 C 80 % 1028,7 hPa 0,0 l/m 4,6 km/h (1 Bft) S-SW 0,00 h 0,025 mm 0,0 UV-I 0 W/m 0,5 C 3,7 C 6,4 km/h (2 Bft) 98,76 %
19.03.2019 20:00 3,5 C 7,2 C 2,6 C 81 % 1029,3 hPa 0,0 l/m 5,3 km/h (1 Bft) S-SW 0,00 h 0,000 mm 0,0 UV-I 0 W/m 0,5 C 3,5 C 7,5 km/h (2 Bft) 95,70 %
19.03.2019 21:00 3,4 C 7,2 C 2,4 C 80 % 1029,7 hPa 0,0 l/m 3,3 km/h (1 Bft) W-SW 0,00 h 0,000 mm 0,0 UV-I 0 W/m 0,3 C 3,4 C 5,3 km/h (1 Bft) 97,45 %
19.03.2019 22:00 3,2 C 7,2 C 1,7 C 79 % 1030,2 hPa 0,0 l/m 2,9 km/h (1 Bft) SW 0,00 h 0,000 mm 0,0 UV-I 0 W/m -0,1 C 3,2 C 4,4 km/h (1 Bft) 97,61 %
19.03.2019 23:00 3,3 C 7,2 C 2,3 C 78 % 1030,7 hPa 0,0 l/m 3,5 km/h (1 Bft) W-SW 0,00 h 0,000 mm 0,0 UV-I 0 W/m -0,2 C 3,2 C 5,5 km/h (1 Bft) 98,10 %
20.03.2019 00:00 3,1 C 7,2 C 2,2 C 81 % 1031,1 hPa 0,0 l/m 3,5 km/h (1 Bft) S-SW 0,00 h 0,000 mm 0,0 UV-I 0 W/m 0,1 C 3,1 C 5,2 km/h (1 Bft) 92,90 %
20.03.2019 01:00 2,8 C 7,2 C 2,0 C 82 % 1031,5 hPa 0,0 l/m 3,5 km/h (1 Bft) SW 0,00 h 0,000 mm 0,0 UV-I 0 W/m 0,0 C 2,8 C 5,4 km/h (1 Bft) 97,19 %
20.03.2019 02:00 2,5 C 7,2 C 1,4 C 84 % 1031,5 hPa 0,0 l/m 2,8 km/h (1 Bft) SW 0,00 h 0,000 mm 0,0 UV-I 0 W/m 0,0 C 2,5 C 4,3 km/h (1 Bft) 98,01 %
20.03.2019 03:00 2,2 C 7,2 C 0,6 C 85 % 1031,5 hPa 0,0 l/m 3,5 km/h (1 Bft) SW 0,00 h 0,000 mm 0,0 UV-I 0 W/m -0,1 C 2,2 C 5,1 km/h (1 Bft) 98,04 %
20.03.2019 04:00 1,3 C 7,2 C -0,2 C 88 % 1031,7 hPa 0,0 l/m 2,6 km/h (1 Bft) S-SW 0,00 h 0,000 mm 0,0 UV-I 0 W/m -0,4 C 1,3 C 3,8 km/h (1 Bft) 96,45 %
20.03.2019 05:00 1,1 C 7,2 C -0,4 C 90 % 1032,0 hPa 0,0 l/m 2,1 km/h (1 Bft) S-SW 0,00 h 0,000 mm 0,0 UV-I 0 W/m -0,4 C 1,1 C 3,2 km/h (1 Bft) 96,56 %
20.03.2019 06:00 1,2 C 7,2 C 0,1 C 91 % 1032,6 hPa 0,0 l/m 2,6 km/h (1 Bft) S-SW 0,03 h 0,000 mm 0,0 UV-I 20 W/m -0,2 C 1,2 C 3,6 km/h (1 Bft) 98,93 %
20.03.2019 07:00 2,1 C 7,2 C 3,5 C 89 % 1033,4 hPa 0,0 l/m 2,3 km/h (1 Bft) S-SW 0,07 h 0,000 mm 0,0 UV-I 100 W/m 0,4 C 2,1 C 3,6 km/h (1 Bft) 97,04 %
20.03.2019 08:00 3,3 C 7,2 C 6,8 C 79 % 1034,0 hPa 0,0 l/m 2,2 km/h (1 Bft) SW 0,27 h 0,051 mm 0,6 UV-I 198 W/m -0,0 C 3,3 C 3,8 km/h (1 Bft) 96,07 %
20.03.2019 09:00 5,1 C 7,2 C 14,0 C 66 % 1034,2 hPa 0,0 l/m 1,8 km/h (1 Bft) S 0,98 h 0,076 mm 1,1 UV-I 387 W/m -0,7 C 5,1 C 3,6 km/h (1 Bft) 97,30 %
20.03.2019 10:00 7,0 C 7,2 C 20,2 C 57 % 1034,4 hPa 0,0 l/m 6,2 km/h (2 Bft) O-NO 0,98 h 0,178 mm 1,8 UV-I 586 W/m -0,8 C 6,5 C 10,2 km/h (2 Bft) 97,68 %
20.03.2019 11:00 7,2 C 7,2 C 14,3 C 44 % 1034,4 hPa 0,0 l/m 3,6 km/h (1 Bft) O-SO 0,30 h 0,279 mm 1,4 UV-I 355 W/m -4,4 C 7,1 C 6,5 km/h (2 Bft) 96,62 %
20.03.2019 12:00 7,6 C 7,2 C 13,7 C 44 % 1034,5 hPa 0,0 l/m 4,5 km/h (1 Bft) NW 0,53 h 0,178 mm 1,4 UV-I 362 W/m -3,9 C 7,5 C 7,5 km/h (2 Bft) 98,08 %
20.03.2019 13:00 7,8 C 7,2 C 14,9 C 45 % 1034,4 hPa 0,0 l/m 4,8 km/h (1 Bft) N-NO 0,33 h 0,178 mm 1,5 UV-I 417 W/m -3,5 C 7,4 C 8,2 km/h (2 Bft) 98,07 %
20.03.2019 14:00 8,7 C 7,2 C 19,0 C 41 % 1034,0 hPa 0,0 l/m 4,5 km/h (1 Bft) O 0,97 h 0,203 mm 1,5 UV-I 544 W/m -3,8 C 8,6 C 7,7 km/h (2 Bft) 97,32 %
20.03.2019 15:00 9,0 C 7,2 C 12,2 C 40 % 1033,8 hPa 0,0 l/m 6,1 km/h (2 Bft) W-SW 1,00 h 0,279 mm 0,9 UV-I 416 W/m -3,9 C 8,3 C 11,0 km/h (2 Bft) 99,20 %
20.03.2019 16:00 8,3 C 7,2 C 7,5 C 40 % 1033,6 hPa 0,0 l/m 5,7 km/h (1 Bft) S-SW 1,00 h 0,229 mm 0,5 UV-I 231 W/m -4,3 C 8,0 C 9,3 km/h (2 Bft) 97,75 %
20.03.2019 17:00 7,7 C 7,2 C 5,7 C 44 % 1033,6 hPa 0,0 l/m 4,0 km/h (1 Bft) S 1,00 h 0,127 mm 0,0 UV-I 87 W/m -3,8 C 7,7 C 6,7 km/h (2 Bft) 98,46 %
20.03.2019 18:00 4,4 C 7,2 C -0,1 C 64 % 1034,0 hPa 0,0 l/m 2,6 km/h (1 Bft) S 0,10 h 0,076 mm 0,0 UV-I 11 W/m -1,9 C 4,4 C 3,7 km/h (1 Bft) 95,98 %
20.03.2019 19:00 2,6 C 7,2 C -3,1 C 68 % 1034,4 hPa 0,0 l/m 2,9 km/h (1 Bft) S 0,00 h 0,026 mm 0,0 UV-I 0 W/m -2,7 C 2,6 C 3,8 km/h (1 Bft) 97,48 %
20.03.2019 20:00 1,5 C 7,2 C -3,7 C 72 % 1034,8 hPa 0,0 l/m 3,8 km/h (1 Bft) S 0,00 h 0,000 mm 0,0 UV-I 0 W/m -2,9 C 1,5 C 4,8 km/h (1 Bft) 98,97 %
20.03.2019 21:00 1,8 C 7,2 C -2,1 C 71 % 1035,2 hPa 0,0 l/m 5,7 km/h (1 Bft) S 0,00 h 0,000 mm 0,0 UV-I 0 W/m -3,0 C 1,6 C 7,2 km/h (2 Bft) 97,21 %
20.03.2019 22:00 1,5 C 7,2 C -1,5 C 72 % 1035,5 hPa 0,0 l/m 5,1 km/h (1 Bft) S-SW 0,00 h 0,025 mm 0,0 UV-I 0 W/m -2,9 C 1,5 C 6,6 km/h (2 Bft) 95,99 %
20.03.2019 23:00 0,2 C 7,2 C -5,3 C 78 % 1035,7 hPa 0,0 l/m 1,5 km/h (1 Bft) S 0,00 h 0,025 mm 0,0 UV-I 0 W/m -3,2 C 0,2 C 2,6 km/h (1 Bft) 98,72 %
21.03.2019 00:00 -1,5 C 7,2 C -6,4 C 84 % 1035,6 hPa 0,0 l/m 2,7 km/h (1 Bft) S 0,00 h 0,000 mm 0,0 UV-I 0 W/m -3,8 C -1,5 C 3,7 km/h (1 Bft) 96,46 %
21.03.2019 01:00 -1,4 C 7,2 C -5,8 C 85 % 1035,7 hPa 0,0 l/m 1,7 km/h (1 Bft) S 0,00 h 0,000 mm 0,0 UV-I 0 W/m -3,6 C -1,4 C 2,7 km/h (1 Bft) 96,86 %
21.03.2019 02:00 -1,8 C 7,2 C -5,7 C 86 % 1035,7 hPa 0,0 l/m 2,2 km/h (1 Bft) O-SO 0,00 h 0,000 mm 0,0 UV-I 0 W/m -3,8 C -1,8 C 3,5 km/h (1 Bft) 97,30 %
21.03.2019 03:00 -2,4 C 7,2 C -6,1 C 88 % 1035,6 hPa 0,0 l/m 1,9 km/h (1 Bft) O-SO 0,00 h 0,000 mm 0,0 UV-I 0 W/m -4,1 C -2,4 C 3,0 km/h (1 Bft) 96,69 %
21.03.2019 04:00 -2,5 C 7,2 C -6,2 C 88 % 1035,2 hPa 0,0 l/m 2,3 km/h (1 Bft) S 0,00 h 0,000 mm 0,0 UV-I 0 W/m -4,2 C -2,5 C 3,3 km/h (1 Bft) 97,48 %
21.03.2019 05:00 -2,4 C 7,2 C -7,7 C 89 % 1035,0 hPa 0,0 l/m 1,6 km/h (1 Bft) O-NO 0,00 h 0,000 mm 0,0 UV-I 4 W/m -4,0 C -2,4 C 2,6 km/h (1 Bft) 97,20 %
21.03.2019 06:00 -2,9 C 7,2 C -6,8 C 90 % 1035,1 hPa 0,0 l/m 1,0 km/h (0 Bft) S-SW 0,73 h 0,000 mm 0,0 UV-I 51 W/m -4,4 C -2,9 C 1,6 km/h (1 Bft) 98,47 %
21.03.2019 07:00 -0,6 C 7,2 C -0,9 C 86 % 1035,7 hPa 0,0 l/m 3,4 km/h (1 Bft) O-NO 1,00 h 0,025 mm 0,0 UV-I 195 W/m -2,7 C -0,6 C 5,6 km/h (1 Bft) 97,93 %
21.03.2019 08:00 2,3 C 7,2 C 4,1 C 75 % 1035,8 hPa 0,0 l/m 5,4 km/h (1 Bft) O 1,00 h 0,077 mm 0,7 UV-I 361 W/m -1,7 C 1,9 C 8,4 km/h (2 Bft) 96,25 %
21.03.2019 09:00 4,9 C 7,2 C 16,4 C 70 % 1035,6 hPa 0,0 l/m 7,8 km/h (2 Bft) NO 1,00 h 0,152 mm 1,4 UV-I 507 W/m -0,1 C 3,6 C 11,3 km/h (2 Bft) 97,77 %
21.03.2019 10:00 7,2 C 7,2 C 19,5 C 62 % 1035,2 hPa 0,0 l/m 13,0 km/h (3 Bft) O-NO 1,00 h 0,229 mm 2,0 UV-I 611 W/m 0,4 C 2,9 C 18,3 km/h (3 Bft) 95,79 %
21.03.2019 11:00 8,9 C 7,2 C 19,4 C 53 % 1034,8 hPa 0,0 l/m 19,2 km/h (3 Bft) O-NO 1,00 h 0,304 mm 2,4 UV-I 653 W/m -0,2 C 2,1 C 26,6 km/h (4 Bft) 96,47 %
21.03.2019 12:00 10,3 C 7,2 C 21,3 C 50 % 1034,1 hPa 0,0 l/m 16,9 km/h (3 Bft) O-NO 1,00 h 0,381 mm 2,6 UV-I 682 W/m 0,3 C 4,8 C 23,5 km/h (4 Bft) 95,18 %
21.03.2019 13:00 11,6 C 7,2 C 21,4 C 43 % 1033,2 hPa 0,0 l/m 17,9 km/h (3 Bft) O-NO 1,00 h 0,407 mm 2,3 UV-I 628 W/m -0,6 C 6,0 C 24,3 km/h (4 Bft) 95,86 %
21.03.2019 14:00 12,3 C 7,2 C 19,9 C 42 % 1032,3 hPa 0,0 l/m 15,9 km/h (3 Bft) O-NO 1,00 h 0,406 mm 1,7 UV-I 527 W/m -0,2 C 7,6 C 22,2 km/h (4 Bft) 98,99 %
21.03.2019 15:00 12,8 C 7,2 C 14,9 C 41 % 1031,7 hPa 0,0 l/m 14,3 km/h (3 Bft) O-NO 1,00 h 0,356 mm 1,0 UV-I 391 W/m -0,2 C 8,9 C 19,5 km/h (3 Bft) 97,55 %
21.03.2019 16:00 12,6 C 7,2 C 11,7 C 42 % 1031,4 hPa 0,0 l/m 13,7 km/h (3 Bft) O 1,00 h 0,279 mm 0,5 UV-I 230 W/m 0,0 C 8,9 C 18,3 km/h (3 Bft) 98,83 %
21.03.2019 17:00 11,6 C 7,2 C 9,0 C 47 % 1031,4 hPa 0,0 l/m 10,6 km/h (2 Bft) O 1,00 h 0,203 mm 0,0 UV-I 86 W/m 0,5 C 9,2 C 15,6 km/h (3 Bft) 97,82 %
21.03.2019 18:00 9,5 C 7,2 C 5,0 C 54 % 1031,7 hPa 0,0 l/m 6,1 km/h (2 Bft) O 0,13 h 0,102 mm 0,0 UV-I 12 W/m 0,8 C 9,1 C 9,9 km/h (2 Bft) 97,79 %
21.03.2019 19:00 8,6 C 7,2 C 4,5 C 55 % 1031,9 hPa 0,0 l/m 10,8 km/h (2 Bft) O 0,00 h 0,051 mm 0,0 UV-I 0 W/m 0,2 C 5,7 C 16,2 km/h (3 Bft) 95,69 %
21.03.2019 20:00 7,8 C 7,2 C 4,1 C 57 % 1032,1 hPa 0,0 l/m 9,8 km/h (2 Bft) O 0,00 h 0,051 mm 0,0 UV-I 0 W/m -0,2 C 5,4 C 14,3 km/h (3 Bft) 98,34 %
21.03.2019 21:00 7,3 C 7,2 C 3,9 C 57 % 1032,1 hPa 0,0 l/m 10,1 km/h (2 Bft) O-NO 0,00 h 0,050 mm 0,0 UV-I 0 W/m -0,8 C 4,6 C 14,8 km/h (3 Bft) 97,24 %
21.03.2019 22:00 6,4 C 7,2 C 3,6 C 59 % 1032,0 hPa 0,0 l/m 8,6 km/h (2 Bft) O-NO 0,00 h 0,051 mm 0,0 UV-I 0 W/m -1,1 C 4,7 C 12,7 km/h (3 Bft) 98,08 %
21.03.2019 23:00 5,7 C 7,2 C 1,5 C 61 % 1032,0 hPa 0,0 l/m 5,9 km/h (2 Bft) O-NO 0,00 h 0,051 mm 0,0 UV-I 0 W/m -1,3 C 5,3 C 8,5 km/h (2 Bft) 96,17 %
22.03.2019 00:00 3,9 C 7,2 C -2,8 C 67 % 1031,8 hPa 0,0 l/m 3,0 km/h (1 Bft) O 0,00 h 0,000 mm 0,0 UV-I 0 W/m -1,5 C 3,9 C 4,3 km/h (1 Bft) 98,30 %
22.03.2019 01:00 3,0 C 7,2 C -3,1 C 71 % 1031,6 hPa 0,0 l/m 2,5 km/h (1 Bft) O 0,00 h 0,025 mm 0,0 UV-I 0 W/m -1,7 C 3,0 C 3,7 km/h (1 Bft) 98,46 %
22.03.2019 02:00 1,8 C 7,2 C -3,6 C 75 % 1031,2 hPa 0,0 l/m 2,1 km/h (1 Bft) O-SO 0,00 h 0,000 mm 0,0 UV-I 0 W/m -2,1 C 1,8 C 3,5 km/h (1 Bft) 96,45 %
22.03.2019 03:00 0,4 C 7,2 C -3,7 C 82 % 1031,0 hPa 0,0 l/m 1,4 km/h (1 Bft) O-SO 0,00 h 0,000 mm 0,0 UV-I 0 W/m -2,3 C 0,4 C 2,6 km/h (1 Bft) 96,37 %
22.03.2019 04:00 0,4 C 7,2 C -4,4 C 81 % 1030,9 hPa 0,0 l/m 1,5 km/h (1 Bft) O 0,00 h 0,000 mm 0,0 UV-I 0 W/m -2,4 C 0,4 C 3,1 km/h (1 Bft) 98,86 %
22.03.2019 05:00 -0,4 C 7,2 C -5,2 C 86 % 1030,9 hPa 0,0 l/m 1,7 km/h (1 Bft) O-SO 0,00 h 0,000 mm 0,0 UV-I 5 W/m -2,5 C -0,4 C 3,0 km/h (1 Bft) 97,19 %
22.03.2019 06:00 -0,4 C 7,2 C -4,1 C 86 % 1031,2 hPa 0,0 l/m 1,8 km/h (1 Bft) O-SO 0,77 h 0,000 mm 0,0 UV-I 53 W/m -2,5 C -0,4 C 3,5 km/h (1 Bft) 97,67 %
22.03.2019 07:00 2,0 C 7,2 C 1,9 C 82 % 1031,3 hPa 0,0 l/m 2,5 km/h (1 Bft) O 1,00 h 0,026 mm 0,0 UV-I 201 W/m -0,7 C 2,0 C 4,2 km/h (1 Bft) 97,61 %
22.03.2019 08:00 5,4 C 7,2 C 7,7 C 72 % 1031,0 hPa 0,0 l/m 6,7 km/h (2 Bft) O-NO 1,00 h 0,076 mm 0,7 UV-I 366 W/m 0,6 C 4,6 C 10,0 km/h (2 Bft) 97,86 %
22.03.2019 09:00 8,3 C 7,2 C 17,6 C 60 % 1030,7 hPa 0,0 l/m 14,9 km/h (3 Bft) O-NO 1,00 h 0,178 mm 1,4 UV-I 511 W/m 1,1 C 3,2 C 20,5 km/h (4 Bft) 97,89 %
22.03.2019 10:00 11,2 C 7,2 C 21,9 C 54 % 1030,4 hPa 0,0 l/m 16,5 km/h (3 Bft) O-NO 1,00 h 0,279 mm 2,0 UV-I 606 W/m 2,3 C 6,0 C 22,8 km/h (4 Bft) 98,77 %
22.03.2019 11:00 13,8 C 7,2 C 22,7 C 50 % 1029,9 hPa 0,0 l/m 20,7 km/h (4 Bft) O-NO 1,00 h 0,381 mm 2,4 UV-I 608 W/m 3,6 C 8,0 C 28,2 km/h (4 Bft) 97,91 %
22.03.2019 12:00 15,3 C 7,4 C 24,5 C 48 % 1029,5 hPa 0,0 l/m 21,0 km/h (4 Bft) O 1,00 h 0,432 mm 2,7 UV-I 661 W/m 4,5 C 10,0 C 28,8 km/h (5 Bft) 98,65 %
22.03.2019 13:00 16,4 C 7,8 C 23,7 C 48 % 1028,9 hPa 0,0 l/m 21,7 km/h (4 Bft) O-NO 1,00 h 0,483 mm 2,3 UV-I 579 W/m 5,3 C 11,2 C 29,1 km/h (5 Bft) 95,22 %
22.03.2019 14:00 17,0 C 7,8 C 22,2 C 46 % 1028,2 hPa 0,0 l/m 18,8 km/h (3 Bft) O-NO 1,00 h 0,457 mm 1,5 UV-I 446 W/m 5,4 C 12,6 C 26,1 km/h (4 Bft) 95,76 %
22.03.2019 15:00 17,2 C 7,8 C 18,8 C 45 % 1027,7 hPa 0,0 l/m 18,3 km/h (3 Bft) O 1,00 h 0,381 mm 1,0 UV-I 383 W/m 5,2 C 13,0 C 25,0 km/h (4 Bft) 99,11 %
22.03.2019 16:00 16,7 C 7,8 C 15,1 C 46 % 1027,4 hPa 0,0 l/m 17,2 km/h (3 Bft) O 0,97 h 0,330 mm 0,5 UV-I 216 W/m 5,0 C 12,7 C 24,2 km/h (4 Bft) 97,03 %
22.03.2019 17:00 15,7 C 7,8 C 13,1 C 50 % 1027,3 hPa 0,0 l/m 13,4 km/h (3 Bft) O 1,00 h 0,229 mm 0,0 UV-I 89 W/m 5,2 C 12,6 C 18,9 km/h (3 Bft) 98,12 %
22.03.2019 18:00 13,8 C 7,8 C 9,5 C 57 % 1027,3 hPa 0,0 l/m 9,3 km/h (2 Bft) O 0,17 h 0,127 mm 0,0 UV-I 12 W/m 5,3 C 12,1 C 13,4 km/h (3 Bft) 96,78 %
22.03.2019 19:00 12,1 C 7,8 C 7,6 C 61 % 1027,5 hPa 0,0 l/m 6,8 km/h (2 Bft) O 0,00 h 0,050 mm 0,0 UV-I 0 W/m 4,9 C 11,6 C 11,0 km/h (2 Bft) 97,08 %
22.03.2019 20:00 11,7 C 7,8 C 7,9 C 62 % 1027,8 hPa 0,0 l/m 8,9 km/h (2 Bft) O 0,00 h 0,026 mm 0,0 UV-I 0 W/m 4,7 C 10,2 C 13,6 km/h (3 Bft) 97,46 %
22.03.2019 21:00 10,5 C 7,8 C 3,1 C 66 % 1027,7 hPa 0,0 l/m 3,6 km/h (1 Bft) O-NO 0,00 h 0,051 mm 0,0 UV-I 0 W/m 4,4 C 10,5 C 5,6 km/h (1 Bft) 98,43 %
22.03.2019 22:00 8,0 C 7,8 C 1,0 C 75 % 1027,6 hPa 0,0 l/m 0,1 km/h (0 Bft) S-SO 0,00 h 0,025 mm 0,0 UV-I 0 W/m 3,8 C 8,0 C 0,3 km/h (0 Bft) 98,32 %
22.03.2019 23:00 5,8 C 7,8 C 1,8 C 83 % 1027,6 hPa 0,0 l/m 5,1 km/h (1 Bft) S-SW 0,00 h 0,000 mm 0,0 UV-I 0 W/m 3,1 C 5,7 C 6,6 km/h (2 Bft) 96,51 %
23.03.2019 00:00 5,1 C 7,8 C 1,1 C 84 % 1027,6 hPa 0,0 l/m 4,6 km/h (1 Bft) S-SW 0,00 h 0,000 mm 0,0 UV-I 0 W/m 2,6 C 5,1 C 6,1 km/h (2 Bft) 97,98 %
23.03.2019 01:00 4,6 C 7,8 C 1,1 C 86 % 1027,4 hPa 0,0 l/m 5,0 km/h (1 Bft) S-SW 0,00 h 0,000 mm 0,0 UV-I 0 W/m 2,4 C 4,6 C 6,3 km/h (2 Bft) 97,37 %
23.03.2019 02:00 4,1 C 7,8 C 0,4 C 86 % 1027,1 hPa 0,0 l/m 4,6 km/h (1 Bft) S-SW 0,00 h 0,000 mm 0,0 UV-I 0 W/m 2,0 C 4,1 C 6,0 km/h (2 Bft) 98,49 %
23.03.2019 03:00 3,4 C 7,8 C -1,8 C 87 % 1027,0 hPa 0,0 l/m 3,1 km/h (1 Bft) S 0,00 h 0,000 mm 0,0 UV-I 0 W/m 1,5 C 3,4 C 4,1 km/h (1 Bft) 97,09 %
23.03.2019 04:00 2,2 C 7,8 C -2,1 C 90 % 1026,9 hPa 0,0 l/m 3,2 km/h (1 Bft) S 0,00 h 0,000 mm 0,0 UV-I 0 W/m 0,7 C 2,2 C 4,5 km/h (1 Bft) 95,40 %
23.03.2019 05:00 1,7 C 7,8 C -2,9 C 91 % 1026,9 hPa 0,0 l/m 3,0 km/h (1 Bft) S 0,00 h 0,000 mm 0,0 UV-I 5 W/m 0,4 C 1,7 C 4,1 km/h (1 Bft) 98,91 %
23.03.2019 06:00 1,4 C 7,8 C -2,3 C 92 % 1027,4 hPa 0,0 l/m 2,4 km/h (1 Bft) S 0,80 h 0,000 mm 0,0 UV-I 51 W/m 0,3 C 1,4 C 3,3 km/h (1 Bft) 98,46 %
23.03.2019 07:00 4,1 C 7,8 C 3,5 C 87 % 1027,8 hPa 0,0 l/m 0,2 km/h (0 Bft) S-SO 1,00 h 0,025 mm 0,2 UV-I 196 W/m 2,2 C 4,1 C 0,6 km/h (0 Bft) 95,33 %
23.03.2019 08:00 7,8 C 7,8 C 10,9 C 75 % 1027,9 hPa 0,0 l/m 2,4 km/h (1 Bft) S-SW 1,00 h 0,077 mm 0,7 UV-I 363 W/m 3,7 C 7,8 C 4,2 km/h (1 Bft) 97,09 %
23.03.2019 09:00 10,1 C 7,8 C 23,6 C 67 % 1027,8 hPa 0,0 l/m 2,6 km/h (1 Bft) SW 1,00 h 0,177 mm 1,4 UV-I 508 W/m 4,3 C 10,1 C 4,6 km/h (1 Bft) 97,07 %
23.03.2019 10:00 12,4 C 7,8 C 26,4 C 61 % 1027,6 hPa 0,0 l/m 3,1 km/h (1 Bft) N-NW 1,00 h 0,254 mm 2,2 UV-I 611 W/m 5,1 C 12,4 C 5,5 km/h (1 Bft) 97,73 %
23.03.2019 11:00 14,0 C 7,8 C 29,4 C 56 % 1027,1 hPa 0,0 l/m 3,2 km/h (1 Bft) S-SW 1,00 h 0,305 mm 2,8 UV-I 669 W/m 5,4 C 14,0 C 5,8 km/h (2 Bft) 98,13 %
23.03.2019 12:00 15,7 C 7,8 C 29,6 C 50 % 1026,4 hPa 0,0 l/m 3,0 km/h (1 Bft) W-SW 1,00 h 0,356 mm 2,9 UV-I 673 W/m 5,3 C 15,7 C 5,8 km/h (2 Bft) 96,92 %
23.03.2019 13:00 16,9 C 7,8 C 28,6 C 48 % 1025,7 hPa 0,0 l/m 4,8 km/h (1 Bft) NW 1,00 h 0,381 mm 2,5 UV-I 621 W/m 5,9 C 16,8 C 8,5 km/h (2 Bft) 97,58 %
23.03.2019 14:00 17,8 C 7,8 C 27,1 C 47 % 1025,1 hPa 0,0 l/m 5,1 km/h (1 Bft) NW 1,00 h 0,381 mm 1,8 UV-I 529 W/m 6,3 C 17,7 C 9,2 km/h (2 Bft) 97,47 %
23.03.2019 15:00 18,3 C 7,8 C 20,9 C 46 % 1024,6 hPa 0,0 l/m 4,8 km/h (1 Bft) N-NW 1,00 h 0,330 mm 1,3 UV-I 402 W/m 6,4 C 18,3 C 8,5 km/h (2 Bft) 98,64 %
23.03.2019 16:00 18,1 C 7,8 C 16,6 C 43 % 1024,3 hPa 0,0 l/m 4,4 km/h (1 Bft) W 1,00 h 0,254 mm 0,7 UV-I 241 W/m 5,4 C 18,1 C 8,0 km/h (2 Bft) 95,60 %
23.03.2019 17:00 16,8 C 7,8 C 11,8 C 45 % 1024,2 hPa 0,0 l/m 2,0 km/h (1 Bft) NW 1,00 h 0,178 mm 0,0 UV-I 91 W/m 4,9 C 16,8 C 3,9 km/h (1 Bft) 95,97 %
23.03.2019 18:00 13,0 C 7,8 C 5,6 C 59 % 1024,3 hPa 0,0 l/m 1,3 km/h (1 Bft) NW 0,20 h 0,076 mm 0,0 UV-I 13 W/m 4,9 C 13,0 C 2,5 km/h (1 Bft) 96,86 %
23.03.2019 19:00 9,6 C 7,8 C 3,1 C 71 % 1024,5 hPa 0,0 l/m 4,8 km/h (1 Bft) S-SW 0,00 h 0,025 mm 0,0 UV-I 0 W/m 4,6 C 9,6 C 6,0 km/h (2 Bft) 98,49 %
23.03.2019 20:00 9,6 C 7,8 C 4,2 C 71 % 1024,9 hPa 0,0 l/m 6,2 km/h (2 Bft) S-SW 0,00 h 0,026 mm 0,0 UV-I 0 W/m 4,6 C 9,4 C 7,6 km/h (2 Bft) 99,09 %
23.03.2019 21:00 9,4 C 7,8 C 6,6 C 74 % 1025,2 hPa 0,0 l/m 6,0 km/h (2 Bft) S-SW 0,00 h 0,025 mm 0,0 UV-I 0 W/m 5,0 C 9,3 C 8,0 km/h (2 Bft) 95,36 %
23.03.2019 22:00 8,1 C 7,8 C 5,8 C 79 % 1025,2 hPa 0,0 l/m 6,9 km/h (2 Bft) S-SW 0,00 h 0,026 mm 0,0 UV-I 0 W/m 4,6 C 7,4 C 9,2 km/h (2 Bft) 96,90 %
23.03.2019 23:00 7,9 C 7,8 C 5,9 C 77 % 1025,0 hPa 0,0 l/m 8,0 km/h (2 Bft) S-SW 0,00 h 0,025 mm 0,0 UV-I 0 W/m 4,2 C 6,6 C 10,5 km/h (2 Bft) 97,47 %
24.03.2019 00:00 7,4 C 7,8 C 5,4 C 78 % 1024,6 hPa 0,0 l/m 7,9 km/h (2 Bft) S-SW 0,00 h 0,000 mm 0,0 UV-I 0 W/m 3,8 C 6,3 C 10,1 km/h (2 Bft) 98,84 %
24.03.2019 01:00 6,6 C 7,8 C 4,3 C 79 % 1024,2 hPa 0,0 l/m 6,3 km/h (2 Bft) S-SW 0,00 h 0,025 mm 0,0 UV-I 0 W/m 3,3 C 6,4 C 8,2 km/h (2 Bft) 97,10 %
24.03.2019 02:00 5,5 C 7,8 C 1,5 C 82 % 1023,9 hPa 0,0 l/m 4,1 km/h (1 Bft) S-SW 0,00 h 0,026 mm 0,0 UV-I 0 W/m 2,7 C 5,5 C 5,5 km/h (1 Bft) 97,38 %
24.03.2019 03:00 4,4 C 7,8 C 0,3 C 85 % 1023,4 hPa 0,0 l/m 3,2 km/h (1 Bft) S-SW 0,00 h 0,000 mm 0,0 UV-I 0 W/m 2,1 C 4,4 C 4,7 km/h (1 Bft) 96,38 %
24.03.2019 04:00 2,9 C 7,8 C -1,0 C 89 % 1023,4 hPa 0,0 l/m 1,4 km/h (1 Bft) S-SO 0,00 h 0,000 mm 0,0 UV-I 0 W/m 1,2 C 2,9 C 1,9 km/h (1 Bft) 98,30 %
24.03.2019 05:00 2,0 C 7,8 C -1,7 C 91 % 1023,3 hPa 0,0 l/m 3,3 km/h (1 Bft) S 0,00 h 0,000 mm 0,0 UV-I 6 W/m 0,7 C 2,0 C 4,8 km/h (1 Bft) 99,03 %
24.03.2019 06:00 1,8 C 7,8 C -1,5 C 91 % 1023,4 hPa 0,0 l/m 2,1 km/h (1 Bft) SW 0,83 h 0,000 mm 0,0 UV-I 51 W/m 0,6 C 1,8 C 3,2 km/h (1 Bft) 95,65 %
24.03.2019 07:00 4,5 C 7,8 C 4,7 C 87 % 1023,3 hPa 0,0 l/m 1,5 km/h (1 Bft) SW 1,00 h 0,025 mm 0,5 UV-I 191 W/m 2,6 C 4,5 C 2,7 km/h (1 Bft) 97,58 %
24.03.2019 08:00 7,9 C 7,8 C 11,2 C 75 % 1022,9 hPa 0,0 l/m 3,2 km/h (1 Bft) SW 1,00 h 0,076 mm 0,9 UV-I 361 W/m 3,8 C 7,9 C 5,0 km/h (1 Bft) 97,84 %
24.03.2019 09:00 10,5 C 7,8 C 22,7 C 68 % 1022,4 hPa 0,0 l/m 2,5 km/h (1 Bft) SW 1,00 h 0,178 mm 1,7 UV-I 509 W/m 4,9 C 10,5 C 4,6 km/h (1 Bft) 97,97 %
24.03.2019 10:00 12,7 C 7,8 C 26,6 C 64 % 1021,8 hPa 0,0 l/m 3,3 km/h (1 Bft) NO 1,00 h 0,254 mm 2,5 UV-I 614 W/m 6,2 C 12,7 C 5,7 km/h (1 Bft) 98,40 %
24.03.2019 11:00 14,2 C 7,8 C 28,1 C 61 % 1021,1 hPa 0,0 l/m 3,3 km/h (1 Bft) O-NO 1,00 h 0,305 mm 3,2 UV-I 673 W/m 6,8 C 14,2 C 6,0 km/h (2 Bft) 98,71 %
24.03.2019 12:00 15,6 C 7,8 C 28,3 C 58 % 1020,4 hPa 0,0 l/m 4,2 km/h (1 Bft) N-NO 1,00 h 0,356 mm 3,3 UV-I 672 W/m 7,3 C 15,5 C 7,1 km/h (2 Bft) 97,40 %
24.03.2019 13:00 16,8 C 7,8 C 28,2 C 51 % 1019,4 hPa 0,0 l/m 5,0 km/h (1 Bft) N-NO 1,00 h 0,381 mm 2,9 UV-I 622 W/m 6,5 C 16,7 C 8,8 km/h (2 Bft) 98,61 %
24.03.2019 14:00 17,7 C 7,8 C 26,1 C 46 % 1018,6 hPa 0,0 l/m 6,8 km/h (2 Bft) NW 1,00 h 0,381 mm 2,0 UV-I 522 W/m 5,9 C 17,2 C 11,9 km/h (2 Bft) 96,42 %
24.03.2019 15:00 17,9 C 7,8 C 21,1 C 47 % 1018,0 hPa 0,0 l/m 6,2 km/h (2 Bft) W 1,00 h 0,330 mm 1,2 UV-I 378 W/m 6,4 C 17,5 C 11,4 km/h (2 Bft) 95,84 %
24.03.2019 16:00 17,1 C 7,8 C 17,2 C 47 % 1017,6 hPa 0,0 l/m 5,5 km/h (1 Bft) W-NW 0,87 h 0,254 mm 0,6 UV-I 214 W/m 5,7 C 17,0 C 10,7 km/h (2 Bft) 97,96 %
24.03.2019 17:00 16,0 C 7,8 C 14,1 C 50 % 1017,5 hPa 0,0 l/m 5,0 km/h (1 Bft) W 0,90 h 0,152 mm 0,0 UV-I 94 W/m 5,7 C 15,9 C 8,6 km/h (2 Bft) 98,24 %
24.03.2019 18:00 13,7 C 7,8 C 7,5 C 60 % 1017,7 hPa 0,0 l/m 3,4 km/h (1 Bft) W-NW 0,20 h 0,076 mm 0,0 UV-I 12 W/m 6,0 C 13,7 C 5,3 km/h (1 Bft) 98,48 %
24.03.2019 19:00 12,6 C 7,8 C 6,0 C 63 % 1018,2 hPa 0,0 l/m 2,6 km/h (1 Bft) W 0,00 h 0,026 mm 0,0 UV-I 0 W/m 5,8 C 12,6 C 4,0 km/h (1 Bft) 95,93 %
24.03.2019 20:00 10,9 C 7,8 C 8,1 C 71 % 1018,1 hPa 0,0 l/m 4,8 km/h (1 Bft) S-SW 0,00 h 0,025 mm 0,0 UV-I 0 W/m 5,9 C 10,9 C 6,0 km/h (2 Bft) 96,99 %
24.03.2019 21:00 10,6 C 7,8 C 8,4 C 74 % 1018,0 hPa 0,0 l/m 5,1 km/h (1 Bft) SO 0,00 h 0,026 mm 0,0 UV-I 0 W/m 6,2 C 10,3 C 8,1 km/h (2 Bft) 99,18 %
24.03.2019 22:00 10,1 C 8,2 C 8,9 C 78 % 1017,9 hPa 0,0 l/m 2,1 km/h (1 Bft) S-SW 0,00 h 0,025 mm 0,0 UV-I 0 W/m 6,5 C 10,1 C 3,8 km/h (1 Bft) 97,42 %
24.03.2019 23:00 10,3 C 8,3 C 8,9 C 78 % 1017,8 hPa 0,0 l/m 6,4 km/h (2 Bft) W-SW 0,00 h 0,000 mm 0,0 UV-I 0 W/m 6,7 C 9,6 C 9,9 km/h (2 Bft) 97,57 %
Min-Datum _ 21.03.19 18.03.19 21.03.19 20.03.19 18.03.19 - 19.03.19 - - - - - 20.03.19 18.03.19 19.03.19 18.03.19
_ Min-Zeit 06:18 00:00 05:20 14:56 00:04 - 05:12 - - - - - 11:26 06:58 05:12 00:02
Minimum _ -3,2 C 7,2 C -8,3 C 37 % 1013,5 hPa - 0,0 km/h (0 Bft) - - - - - -6,2 C -6,2 C 0,0 km/h (0 Bft) 10,53 %
Max-Datum _ 23.03.19 24.03.19 23.03.19 23.03.19 21.03.19 18.03.19 18.03.19 - 22.03.19 22.03.19 24.03.19 19.03.19 24.03.19 23.03.19 18.03.19 18.03.19
_ Max-Zeit 15:54 21:58 11:30 06:28 08:34 00:16 15:48 - 10:54 13:00 11:58 10:40 12:30 15:48 15:46 00:28
Maximum _ 18,5 C 8,3 C 30,6 C 93 % 1035,9 hPa 0,4 l/m 28,6 km/h
W (4 Bft)
- 0,13 h 0,483 mm 3,4 UV-I 823 W/m 8,7 C 18,4 C 46,7 km/h
W (6 Bft)
100,00 %
Durchschnitt _ 6,6 C 7,4 C 7,1 C 71 % 1026,8 hPa #0,6 l/m 7,4 km/h (2 Bft) S-SW #60:54 h #17,398 mm 1,4 UV-I 293 W/m 1,2 C 4,9 C 11,0 km/h (2 Bft) 97,36 %